Aplington, Iowa
Current Conditions -  °F | °C
As of 11:15 AM on Friday 31 Oct 2014 (Local Time) from KIFA Reporting Station
Clear Clear  
Wind Chill: 24°   Ceiling: Unl
Heat Index: 34°   Visibility: 10mi
Dew Point: 19°   Wind: 16mph
Humidity: 54%   Direction: 360°N
Pressure: 30.5"   Gusts: 26mph
Location:  42.58°N, 92.88°W
Report Text: KIFA 311615Z AUTO 36014G23KT 10SM CLR 01/M07 A3050 RMK AO2 T00121071
Loading
Personal Weather Stations






























Interactive Weather Map
Tropical Storm Tracking
New forecast layout! Learn more

10-Day Weather Forecast

Advertisements
Track Severe Weather on mobile